createdAt,value
2022-08-20T00:00:14.986Z,14.27
2022-08-20T00:02:44.004Z,13.88
2022-08-20T00:05:11.014Z,14.38
2022-08-20T00:07:37.547Z,14.15
2022-08-20T00:10:06.707Z,13.95
2022-08-20T00:12:34.452Z,13.15
2022-08-20T00:15:01.389Z,12.77
2022-08-20T00:17:34.225Z,12.40
2022-08-20T00:20:00.632Z,12.10
2022-08-20T00:22:27.986Z,13.48
2022-08-20T00:24:54.470Z,13.48
2022-08-20T00:27:20.944Z,15.07
2022-08-20T00:29:47.823Z,14.85
2022-08-20T00:32:14.369Z,14.57
2022-08-20T00:34:42.266Z,13.13
2022-08-20T00:37:09.095Z,13.35
2022-08-20T00:39:35.770Z,14.18
2022-08-20T00:42:02.912Z,14.02
2022-08-20T00:44:29.497Z,15.45
2022-08-20T00:46:55.922Z,14.02
2022-08-20T00:49:26.031Z,13.60
2022-08-20T00:52:02.688Z,15.95
2022-08-20T00:54:44.299Z,13.90
2022-08-20T00:57:22.769Z,14.30
2022-08-20T00:59:50.248Z,14.02
2022-08-20T01:02:18.301Z,12.52
2022-08-20T01:04:50.319Z,13.52
2022-08-20T01:07:20.402Z,15.20
2022-08-20T01:09:58.194Z,15.75
2022-08-20T01:12:27.502Z,15.45
2022-08-20T01:14:55.316Z,15.82
2022-08-20T01:17:24.851Z,15.30
2022-08-20T01:19:55.833Z,15.85
2022-08-20T01:22:47.567Z,15.63
2022-08-20T01:25:22.645Z,14.50
2022-08-20T01:27:53.220Z,15.43
2022-08-20T01:30:23.595Z,15.25
2022-08-20T01:32:50.064Z,16.38
2022-08-20T01:35:20.406Z,15.43
2022-08-20T01:37:46.857Z,16.80
2022-08-20T01:40:14.317Z,15.65
2022-08-20T01:42:54.014Z,16.65
2022-08-20T01:45:27.956Z,17.05
2022-08-20T01:47:57.424Z,18.07
2022-08-20T01:50:26.462Z,18.25
2022-08-20T01:53:21.449Z,18.48
2022-08-20T01:55:47.908Z,18.45
2022-08-20T01:58:14.449Z,17.70
2022-08-20T02:00:40.913Z,18.88
2022-08-20T02:03:08.645Z,18.33
2022-08-20T02:05:35.926Z,18.83
2022-08-20T02:08:03.001Z,17.77
2022-08-20T02:10:31.663Z,19.33
2022-08-20T02:13:00.209Z,19.90
2022-08-20T02:15:34.445Z,19.35
2022-08-20T02:18:07.994Z,20.83
2022-08-20T02:20:34.699Z,19.52
2022-08-20T02:23:01.292Z,20.27
2022-08-20T02:25:30.733Z,20.52
2022-08-20T02:28:00.538Z,21.52
2022-08-20T02:30:34.775Z,22.15
2022-08-20T02:33:03.606Z,20.98
2022-08-20T02:35:30.534Z,20.60
2022-08-20T02:37:58.108Z,18.23
2022-08-20T02:40:30.165Z,20.08
2022-08-20T02:42:59.118Z,18.63
2022-08-20T02:45:25.810Z,19.75
2022-08-20T02:47:54.297Z,21.20
2022-08-20T02:50:22.203Z,19.25
2022-08-20T02:52:51.601Z,21.13
2022-08-20T02:55:28.037Z,20.45
2022-08-20T02:57:59.925Z,18.38
2022-08-20T03:00:28.126Z,19.67
2022-08-20T03:02:54.737Z,19.90
2022-08-20T03:05:21.142Z,21.08
2022-08-20T03:07:51.394Z,20.13
2022-08-20T03:10:17.846Z,20.08
2022-08-20T03:12:44.243Z,19.80
2022-08-20T03:15:17.478Z,19.98
2022-08-20T03:17:45.108Z,20.40
2022-08-20T03:20:11.909Z,18.25
2022-08-20T03:22:38.404Z,19.35
2022-08-20T03:25:05.796Z,19.42
2022-08-20T03:27:36.126Z,20.23
2022-08-20T03:30:07.641Z,21.80
2022-08-20T03:32:34.221Z,21.85
2022-08-20T03:35:00.706Z,21.95
2022-08-20T03:37:33.534Z,21.88
2022-08-20T03:40:00.533Z,21.23
2022-08-20T03:42:27.380Z,19.98
2022-08-20T03:44:58.540Z,21.60
2022-08-20T03:47:25.514Z,22.00
2022-08-20T03:49:51.934Z,19.80
2022-08-20T03:52:18.415Z,19.25
2022-08-20T03:54:45.950Z,18.50
2022-08-20T03:57:14.047Z,21.23
2022-08-20T03:59:41.135Z,19.52
2022-08-20T04:02:07.661Z,19.77
2022-08-20T04:04:34.530Z,20.63
2022-08-20T04:07:01.198Z,19.65
2022-08-20T04:09:27.600Z,21.33
2022-08-20T04:11:56.560Z,20.80
2022-08-20T04:14:22.982Z,20.17
2022-08-20T04:16:49.444Z,20.98
2022-08-20T04:19:16.034Z,21.48
2022-08-20T04:21:42.473Z,20.23
2022-08-20T04:24:08.912Z,21.63
2022-08-20T04:26:51.208Z,21.67
2022-08-20T04:29:17.645Z,21.58
2022-08-20T04:31:44.346Z,20.38
2022-08-20T04:34:11.056Z,20.55
2022-08-20T04:36:37.572Z,21.45
2022-08-20T04:39:04.116Z,22.85
2022-08-20T04:41:30.544Z,24.58
2022-08-20T04:43:58.257Z,24.75
2022-08-20T04:46:28.515Z,24.02
2022-08-20T04:48:56.172Z,24.77
2022-08-20T04:51:23.404Z,26.63
2022-08-20T04:53:53.960Z,25.85
2022-08-20T04:56:31.983Z,23.65
2022-08-20T04:59:00.688Z,25.13
2022-08-20T05:01:27.856Z,25.80
2022-08-20T05:03:55.096Z,25.75
2022-08-20T05:06:24.991Z,28.80
2022-08-20T05:08:52.233Z,27.90
2022-08-20T05:11:32.853Z,28.50
2022-08-20T05:14:01.960Z,25.08
2022-08-20T05:16:28.430Z,27.08
2022-08-20T05:18:54.867Z,26.38
2022-08-20T05:21:21.887Z,24.52
2022-08-20T05:23:49.116Z,25.10
2022-08-20T05:26:16.136Z,24.52
2022-08-20T05:28:54.031Z,25.42
2022-08-20T05:31:30.943Z,26.98
2022-08-20T05:33:59.285Z,27.20
2022-08-20T05:36:25.708Z,24.13
2022-08-20T05:38:52.345Z,24.27
2022-08-20T05:41:28.275Z,27.17
2022-08-20T05:43:56.069Z,29.80
2022-08-20T05:46:22.969Z,28.40
2022-08-20T05:48:49.592Z,29.08
2022-08-20T05:51:16.028Z,28.17
2022-08-20T05:53:42.475Z,30.00
2022-08-20T05:56:11.274Z,29.67
2022-08-20T05:58:37.907Z,30.73
2022-08-20T06:01:04.951Z,29.65
2022-08-20T06:03:49.761Z,30.33
2022-08-20T06:06:18.419Z,30.83
2022-08-20T06:09:02.975Z,30.35
2022-08-20T06:11:31.709Z,30.20
2022-08-20T06:14:01.528Z,32.05
2022-08-20T06:16:29.587Z,30.70
2022-08-20T06:18:58.235Z,30.63
2022-08-20T06:21:24.837Z,32.13
2022-08-20T06:23:58.146Z,31.40
2022-08-20T06:26:30.469Z,31.58
2022-08-20T06:28:59.129Z,32.75
2022-08-20T06:31:27.339Z,31.58
2022-08-20T06:33:53.951Z,32.67
2022-08-20T06:36:21.018Z,31.90
2022-08-20T06:38:47.609Z,29.48
2022-08-20T06:41:14.143Z,29.63
2022-08-20T06:43:40.749Z,30.45
2022-08-20T06:46:07.260Z,29.85
2022-08-20T06:48:33.989Z,28.77
2022-08-20T06:51:01.419Z,25.38
2022-08-20T06:53:28.834Z,25.77
2022-08-20T06:55:56.163Z,24.10
2022-08-20T06:58:37.159Z,23.58
2022-08-20T07:01:09.519Z,20.83
2022-08-20T07:03:38.030Z,22.43
2022-08-20T07:06:04.956Z,22.10
2022-08-20T07:08:31.426Z,20.70
2022-08-20T07:10:57.858Z,21.77
2022-08-20T07:13:24.400Z,18.00
2022-08-20T07:15:53.009Z,15.32
2022-08-20T07:18:28.899Z,14.00
2022-08-20T07:20:57.121Z,13.95
2022-08-20T07:23:26.728Z,13.73
2022-08-20T07:25:53.769Z,13.25
2022-08-20T07:28:23.836Z,12.43
2022-08-20T07:31:13.347Z,12.50
2022-08-20T07:33:41.426Z,11.77
2022-08-20T07:36:08.505Z,11.98
2022-08-20T07:38:35.769Z,11.15
2022-08-20T07:41:03.381Z,11.68
2022-08-20T07:43:29.909Z,12.40
2022-08-20T07:45:58.457Z,11.93
2022-08-20T07:48:32.147Z,12.20
2022-08-20T07:51:01.281Z,13.20
2022-08-20T07:53:30.248Z,12.73
2022-08-20T07:56:00.854Z,12.48
2022-08-20T07:58:29.560Z,12.60
2022-08-20T08:01:00.367Z,12.90
2022-08-20T08:03:39.913Z,12.93
2022-08-20T08:06:14.601Z,12.77
2022-08-20T08:08:43.898Z,12.50
2022-08-20T08:11:11.265Z,11.57
2022-08-20T08:13:40.424Z,12.55
2022-08-20T08:16:08.068Z,12.52
2022-08-20T08:18:41.401Z,14.20
2022-08-20T08:21:08.596Z,13.77
2022-08-20T08:23:35.255Z,13.43
2022-08-20T08:26:01.869Z,14.98
2022-08-20T08:28:31.245Z,13.77
2022-08-20T08:30:57.945Z,13.07
2022-08-20T08:33:29.383Z,12.30
2022-08-20T08:35:57.387Z,12.37
2022-08-20T08:38:25.101Z,12.10
2022-08-20T08:40:59.831Z,12.20
2022-08-20T08:43:27.878Z,10.63
2022-08-20T08:46:01.550Z,10.15
2022-08-20T08:48:43.185Z,10.13
2022-08-20T08:51:12.361Z,8.70
2022-08-20T08:54:01.139Z,9.15
2022-08-20T08:56:31.863Z,9.73
2022-08-20T08:59:00.963Z,9.05
2022-08-20T09:01:53.913Z,8.40
2022-08-20T09:04:16.328Z,10.10
2022-08-20T09:06:52.311Z,8.88
2022-08-20T09:09:28.952Z,8.73
2022-08-20T09:11:56.768Z,8.05
2022-08-20T09:14:27.070Z,8.95
2022-08-20T09:16:53.739Z,9.15
2022-08-20T09:19:21.215Z,9.27
2022-08-20T09:21:47.626Z,10.00
2022-08-20T09:24:14.127Z,10.43
2022-08-20T09:26:40.658Z,9.52
2022-08-20T09:29:07.113Z,11.35
2022-08-20T09:31:33.546Z,10.43
2022-08-20T09:34:00.023Z,10.23
2022-08-20T09:36:31.826Z,11.88
2022-08-20T09:38:59.480Z,12.98
2022-08-20T09:41:25.942Z,12.20
2022-08-20T09:43:52.367Z,12.10
2022-08-20T09:46:18.853Z,11.88
2022-08-20T09:48:45.297Z,12.55
2022-08-20T09:51:11.795Z,12.25
2022-08-20T09:53:38.204Z,11.05
2022-08-20T09:56:04.813Z,12.43
2022-08-20T09:58:34.306Z,11.85
2022-08-20T10:01:14.031Z,13.23
2022-08-20T10:03:42.114Z,13.77
2022-08-20T10:06:08.715Z,14.10
2022-08-20T10:08:35.158Z,14.18
2022-08-20T10:11:01.614Z,15.20
2022-08-20T10:13:28.212Z,14.80
2022-08-20T10:15:54.640Z,15.35
2022-08-20T10:18:21.143Z,16.23
2022-08-20T10:20:47.690Z,16.20
2022-08-20T10:23:14.153Z,14.65
2022-08-20T10:25:42.132Z,14.77
2022-08-20T10:28:08.632Z,15.60
2022-08-20T10:30:35.492Z,14.48
2022-08-20T10:33:02.021Z,13.85
2022-08-20T10:35:28.637Z,12.70
2022-08-20T10:37:55.229Z,10.82
2022-08-20T10:40:22.131Z,10.63
2022-08-20T10:42:48.705Z,10.77
2022-08-20T10:45:16.156Z,11.02
2022-08-20T10:47:43.222Z,11.43
2022-08-20T10:50:13.140Z,10.77
2022-08-20T10:52:39.765Z,11.50
2022-08-20T10:55:07.083Z,9.27
2022-08-20T10:57:33.883Z,8.02
2022-08-20T11:00:01.461Z,7.70
2022-08-20T11:02:29.429Z,7.95
2022-08-20T11:04:56.414Z,7.88
2022-08-20T11:07:52.829Z,6.97
2022-08-20T11:10:18.731Z,4.78
2022-08-20T11:12:46.507Z,4.63
2022-08-20T11:15:13.908Z,4.65
2022-08-20T11:17:42.324Z,4.80
2022-08-20T11:20:10.511Z,5.80
2022-08-20T11:22:37.278Z,7.07
2022-08-20T11:25:05.540Z,6.93
2022-08-20T11:27:34.901Z,7.22
2022-08-20T11:30:01.408Z,6.38
2022-08-20T11:32:27.957Z,6.18
2022-08-20T11:34:54.462Z,5.82
2022-08-20T11:37:22.438Z,5.78
2022-08-20T11:39:49.005Z,5.35
2022-08-20T11:42:15.560Z,5.43
2022-08-20T11:44:42.213Z,6.75
2022-08-20T11:47:10.651Z,7.32
2022-08-20T11:49:37.580Z,7.25
2022-08-20T11:52:04.636Z,6.43
2022-08-20T11:54:32.562Z,4.57
2022-08-20T11:56:59.614Z,4.38
2022-08-20T11:59:27.545Z,4.43
2022-08-20T12:02:03.194Z,4.00
2022-08-20T12:04:33.697Z,4.10
2022-08-20T12:07:08.400Z,4.25
2022-08-20T12:09:34.886Z,3.92
2022-08-20T12:12:01.358Z,3.70
2022-08-20T12:14:27.788Z,3.50
2022-08-20T12:16:54.312Z,3.90
2022-08-20T12:19:20.756Z,3.15
2022-08-20T12:21:47.578Z,3.22
2022-08-20T12:24:13.987Z,2.72
2022-08-20T12:26:40.650Z,2.60
2022-08-20T12:29:07.087Z,2.90
2022-08-20T12:31:33.530Z,2.38
2022-08-20T12:34:00.093Z,2.45
2022-08-20T12:36:26.607Z,2.65
2022-08-20T12:38:53.149Z,2.00
2022-08-20T12:41:19.586Z,2.50
2022-08-20T12:43:46.061Z,2.25
2022-08-20T12:46:12.493Z,2.65
2022-08-20T12:48:38.897Z,2.20
2022-08-20T12:51:05.365Z,2.30
2022-08-20T12:53:31.868Z,2.47
2022-08-20T12:55:58.343Z,2.17
2022-08-20T12:58:24.744Z,2.45
2022-08-20T13:00:51.520Z,1.95
2022-08-20T13:03:18.722Z,2.20
2022-08-20T13:05:45.223Z,2.05
2022-08-20T13:08:12.617Z,2.42
2022-08-20T13:10:44.411Z,2.10
2022-08-20T13:13:12.592Z,1.85
2022-08-20T13:15:39.065Z,1.92
2022-08-20T13:18:06.377Z,2.10
2022-08-20T13:20:34.871Z,2.35
2022-08-20T13:23:02.240Z,2.17
2022-08-20T13:25:28.756Z,2.28
2022-08-20T13:27:57.574Z,2.00
2022-08-20T13:30:24.628Z,1.80
2022-08-20T13:32:51.248Z,2.42
2022-08-20T13:35:19.334Z,1.90
2022-08-20T13:37:45.795Z,1.90
2022-08-20T13:40:12.542Z,1.92
2022-08-20T13:42:39.212Z,1.92
2022-08-20T13:45:06.796Z,1.70
2022-08-20T13:47:36.896Z,2.00
2022-08-20T13:50:08.319Z,1.58
2022-08-20T13:52:35.504Z,1.75
2022-08-20T13:55:06.364Z,1.75
2022-08-20T13:57:33.211Z,1.63
2022-08-20T13:59:59.869Z,1.85
2022-08-20T14:02:26.850Z,1.40
2022-08-20T14:04:53.729Z,2.08
2022-08-20T14:07:31.489Z,1.95
2022-08-20T14:10:01.458Z,1.85
2022-08-20T14:12:30.761Z,1.70
2022-08-20T14:14:57.802Z,2.22
2022-08-20T14:17:30.092Z,2.22
2022-08-20T14:20:19.881Z,1.67
2022-08-20T14:22:46.371Z,1.80
2022-08-20T14:25:14.540Z,2.05
2022-08-20T14:27:41.740Z,2.10
2022-08-20T14:30:11.190Z,1.75
2022-08-20T14:32:38.194Z,2.20
2022-08-20T14:35:05.403Z,1.85
2022-08-20T14:37:35.314Z,1.80
2022-08-20T14:40:02.872Z,1.73
2022-08-20T14:42:29.814Z,1.92
2022-08-20T14:44:57.186Z,2.17
2022-08-20T14:47:26.599Z,1.60
2022-08-20T14:49:55.117Z,1.95
2022-08-20T14:52:23.347Z,2.00
2022-08-20T14:54:54.686Z,1.77
2022-08-20T14:57:21.363Z,2.10
2022-08-20T14:59:48.160Z,2.05
2022-08-20T15:02:16.538Z,2.58
2022-08-20T15:04:44.075Z,2.35
2022-08-20T15:07:30.063Z,2.38
2022-08-20T15:09:57.241Z,2.15
2022-08-20T15:12:24.619Z,2.58
2022-08-20T15:14:51.235Z,2.55
2022-08-20T15:17:19.733Z,1.80
2022-08-20T15:19:46.249Z,2.35
2022-08-20T15:22:12.738Z,2.15
2022-08-20T15:24:39.202Z,2.50
2022-08-20T15:27:21.803Z,2.20
2022-08-20T15:29:49.604Z,2.10
2022-08-20T15:32:16.145Z,2.28
2022-08-20T15:34:42.683Z,2.50
2022-08-20T15:37:23.237Z,2.05
2022-08-20T15:39:50.965Z,1.85
2022-08-20T15:42:18.680Z,2.03
2022-08-20T15:44:45.789Z,1.85
2022-08-20T15:47:27.820Z,1.80
2022-08-20T15:50:00.639Z,2.35
2022-08-20T15:52:31.715Z,1.63
2022-08-20T15:54:58.221Z,1.80
2022-08-20T15:57:27.966Z,1.63
2022-08-20T16:00:07.855Z,2.05
2022-08-20T16:03:01.928Z,2.30
2022-08-20T16:05:58.697Z,1.80
2022-08-20T16:08:53.174Z,1.88
2022-08-20T16:11:53.473Z,1.75
2022-08-20T16:14:21.868Z,1.98
2022-08-20T16:17:05.751Z,2.20
2022-08-20T16:19:52.407Z,2.20
2022-08-20T16:22:19.490Z,1.90
2022-08-20T16:24:46.065Z,2.13
2022-08-20T16:27:33.811Z,2.20
2022-08-20T16:30:05.299Z,1.95
2022-08-20T16:32:37.085Z,1.60
2022-08-20T16:35:12.480Z,1.80
2022-08-20T16:37:54.189Z,1.75
2022-08-20T16:40:34.526Z,2.60
2022-08-20T16:43:04.231Z,2.15
2022-08-20T16:45:37.877Z,1.95
2022-08-20T16:48:09.394Z,1.70
2022-08-20T16:50:43.994Z,1.70
2022-08-20T16:53:19.507Z,1.88
2022-08-20T16:55:46.099Z,1.83
2022-08-20T16:58:12.527Z,2.17
2022-08-20T17:00:45.134Z,1.70
2022-08-20T17:03:31.495Z,1.65
2022-08-20T17:06:25.540Z,2.13
2022-08-20T17:08:52.997Z,2.00
2022-08-20T17:11:30.959Z,2.05
2022-08-20T17:14:16.179Z,2.92
2022-08-20T17:16:50.058Z,1.85
2022-08-20T17:19:28.014Z,2.95
2022-08-20T17:21:55.189Z,2.28
2022-08-20T17:24:31.411Z,2.10
2022-08-20T17:27:01.434Z,1.80
2022-08-20T17:29:32.479Z,2.00
2022-08-20T17:32:15.565Z,2.50
2022-08-20T17:34:48.507Z,2.03
2022-08-20T17:37:23.313Z,3.10
2022-08-20T17:40:07.030Z,6.00
2022-08-20T17:42:46.650Z,1.95
2022-08-20T17:45:16.842Z,4.72
2022-08-20T17:47:43.876Z,5.13
2022-08-20T17:50:17.230Z,3.00
2022-08-20T17:52:53.046Z,2.60
2022-08-20T17:55:20.193Z,2.30
2022-08-20T17:57:49.262Z,2.20
2022-08-20T18:00:23.318Z,2.20
2022-08-20T18:02:57.701Z,2.10
2022-08-20T18:05:24.469Z,1.90
2022-08-20T18:08:04.130Z,2.08
2022-08-20T18:10:35.277Z,6.38
2022-08-20T18:13:18.842Z,24.75
2022-08-20T18:15:50.829Z,12.07
2022-08-20T18:18:56.122Z,5.28
2022-08-20T18:21:43.671Z,3.80
2022-08-20T18:24:17.569Z,2.70
2022-08-20T18:26:49.238Z,2.50
2022-08-20T18:29:20.601Z,2.45
2022-08-20T18:31:54.033Z,2.50
2022-08-20T18:34:31.191Z,2.10
2022-08-20T18:37:00.326Z,2.40
2022-08-20T18:39:33.396Z,2.22
2022-08-20T18:44:34.192Z,2.33
2022-08-20T18:47:05.910Z,2.60
2022-08-20T18:49:41.343Z,2.70
2022-08-20T18:52:15.206Z,2.95
2022-08-20T18:54:54.191Z,2.22
2022-08-20T18:57:41.744Z,2.38
2022-08-20T19:00:16.531Z,2.20
2022-08-20T19:03:07.676Z,2.25
2022-08-20T19:05:46.243Z,2.30
2022-08-20T19:08:17.199Z,2.05
2022-08-20T19:10:51.824Z,2.60
2022-08-20T19:13:43.201Z,2.75
2022-08-20T19:16:14.566Z,2.22
2022-08-20T19:18:47.557Z,2.43
2022-08-20T19:21:16.014Z,2.42
2022-08-20T19:23:48.388Z,2.38
2022-08-20T19:26:25.824Z,2.53
2022-08-20T19:28:59.575Z,2.30
2022-08-20T19:31:29.221Z,2.30
2022-08-20T19:34:34.780Z,2.17
2022-08-20T19:37:27.939Z,2.40
2022-08-20T19:39:53.934Z,2.60
2022-08-20T19:42:28.299Z,2.15
2022-08-20T19:44:58.729Z,1.98
2022-08-20T19:47:37.275Z,2.38
2022-08-20T19:50:30.006Z,1.88
2022-08-20T19:56:16.831Z,2.20
2022-08-20T19:58:43.476Z,2.22
2022-08-20T20:01:21.354Z,2.30
2022-08-20T20:04:03.229Z,2.33
2022-08-20T20:06:33.752Z,2.13
2022-08-20T20:09:04.810Z,2.53
2022-08-20T20:11:37.801Z,2.45
2022-08-20T20:14:07.154Z,2.90
2022-08-20T20:16:34.596Z,3.58
2022-08-20T20:19:24.746Z,3.00
2022-08-20T20:21:50.866Z,2.30
2022-08-20T20:24:31.597Z,2.67
2022-08-20T20:27:01.023Z,2.65
2022-08-20T20:29:33.688Z,2.50
2022-08-20T20:32:01.950Z,2.47
2022-08-20T20:34:36.263Z,3.00
2022-08-20T20:37:10.175Z,2.35
2022-08-20T20:39:44.066Z,2.53
2022-08-20T20:42:12.902Z,2.63
2022-08-20T20:44:41.428Z,2.58
2022-08-20T20:47:18.465Z,2.00
2022-08-20T20:49:54.417Z,2.50
2022-08-20T20:52:22.629Z,2.40
2022-08-20T20:54:49.317Z,2.20
2022-08-20T20:57:15.636Z,2.60
2022-08-20T20:59:42.119Z,2.83
2022-08-20T21:02:08.557Z,2.30
2022-08-20T21:04:37.601Z,2.30
2022-08-20T21:07:08.852Z,2.63
2022-08-20T21:09:37.201Z,2.40
2022-08-20T21:12:04.106Z,2.53
2022-08-20T21:14:30.720Z,2.60
2022-08-20T21:16:59.635Z,2.80
2022-08-20T21:19:26.261Z,2.50
2022-08-20T21:21:52.693Z,2.90
2022-08-20T21:24:19.180Z,2.70
2022-08-20T21:26:46.003Z,2.22
2022-08-20T21:29:16.484Z,2.58
2022-08-20T21:31:44.578Z,2.60
2022-08-20T21:34:13.706Z,2.72
2022-08-20T21:36:40.424Z,2.40
2022-08-20T21:39:07.006Z,2.80
2022-08-20T21:41:33.684Z,2.42
2022-08-20T21:44:08.140Z,2.35
2022-08-20T21:46:34.917Z,2.50
2022-08-20T21:49:01.384Z,2.83
2022-08-20T21:51:29.590Z,2.90
2022-08-20T21:53:58.854Z,2.58
2022-08-20T21:56:25.298Z,3.22
2022-08-20T21:58:53.150Z,3.20
2022-08-20T22:01:22.012Z,3.35
2022-08-20T22:03:49.561Z,2.92
2022-08-20T22:06:18.356Z,3.15
2022-08-20T22:08:44.905Z,3.17
2022-08-20T22:11:11.815Z,3.17
2022-08-20T22:13:39.580Z,2.75
2022-08-20T22:16:18.688Z,2.60
2022-08-20T22:18:46.208Z,2.97
2022-08-20T22:21:16.683Z,3.50
2022-08-20T22:23:43.288Z,3.38
2022-08-20T22:26:10.049Z,3.28
2022-08-20T22:28:36.785Z,2.90
2022-08-20T22:31:03.972Z,3.03
2022-08-20T22:33:31.196Z,2.60
2022-08-20T22:35:58.050Z,2.88
2022-08-20T22:38:24.879Z,2.67
2022-08-20T22:40:51.364Z,3.40
2022-08-20T22:43:17.823Z,3.10
2022-08-20T22:45:45.911Z,3.35
2022-08-20T22:48:15.439Z,2.85
2022-08-20T22:50:42.054Z,3.47
2022-08-20T22:53:08.568Z,3.20
2022-08-20T22:55:35.231Z,3.20
2022-08-20T22:58:02.495Z,3.60
2022-08-20T23:00:32.050Z,3.28
2022-08-20T23:03:00.254Z,2.90
2022-08-20T23:05:28.399Z,3.35
2022-08-20T23:07:57.716Z,3.00
2022-08-20T23:10:25.287Z,3.05
2022-08-20T23:12:51.878Z,3.08
2022-08-20T23:15:18.387Z,2.83
2022-08-20T23:17:45.120Z,3.22
2022-08-20T23:20:13.721Z,4.22
2022-08-20T23:22:40.186Z,3.47
2022-08-20T23:25:07.915Z,3.78
2022-08-20T23:27:42.737Z,4.22
2022-08-20T23:30:09.514Z,4.13
2022-08-20T23:32:35.946Z,4.13
2022-08-20T23:35:03.233Z,4.47
2022-08-20T23:37:29.700Z,5.13
2022-08-20T23:39:56.211Z,4.90
2022-08-20T23:42:23.034Z,5.38
2022-08-20T23:44:49.464Z,5.93
2022-08-20T23:47:19.952Z,5.80
2022-08-20T23:49:46.694Z,5.10
2022-08-20T23:52:13.125Z,4.75
2022-08-20T23:54:39.703Z,4.80
2022-08-20T23:57:08.225Z,5.00
2022-08-20T23:59:35.084Z,5.30
